Portada
METAR-TAF:

METAR-TAF

Aeropuertos :

Aeropuerto Internacional Gustavo Rojas Pinilla

San Andrés, Colombia

latitud: 12-35N, longitud: 081-43W, altitud: 1 m

Observación

El informe se hizo hace 36 minutos, a las 10:00 UTC
Viento 9 kt del este, variando entre noreste y este-sureste
Temperatura 27°C
Humedad 79%
Presión 1011 hPa
Visibilidad 10 km o más
Escasas nubes a una altura de 1400 ft
Nubes dispersas a una altura de 8000 ft

METAR: SKSP 251000Z 08009KT 050V110 9999 FEW014 SCT080 27/23 Q1011 RMK A2986

Hora: 05:36 (10:36 UTC)

Pronóstico

El informe se hizo hace 6 horas y 6 minutos, a las 04:30 UTC
Pronóstico válido del 25 a las 06 UTC al 26 a las 06 UTC
Viento 12 kt del este-noreste
Visibilidad 10 km o más
Escasas nubes a una altura de 1700 ft
Nubes dispersas a una altura de 8000 ft

TAF: SKSP 250430Z 2506/2606 06012KT 9999 FEW017 SCT080 TX31/2518Z TN26/2510Z

Observaciones y pronósticos meteorológicos de más de 4000 aeropuertos (mensajes METAR y TAF).

Los puntos amarillos y rojos representan las estaciones disponibles.

Ponga el ratón en el punto deseado para ver el nombre de la estación.

Haga clic para ver las observaciones y los pronósticos meteorológicos.

Para cambiar el mapa : haga clic en los botones verdes con una cruz de color negro para hacer un zoom, en el botón verde con un guión para alejar o en las flechas verdes para mapas adyacentes.


METAR-TAF: